Time;durP1;ratioP1;P1;durP2;ratioP2;P2;SDS_P1;SDS_P2;PMS_P1;PMS_P2;Temp;Humidity;BMP_temperature;BMP_pressure;BME280_temperature;BME280_humidity;BME280_pressure;Samples;Min_cycle;Max_cycle;Signal;HPM_P1;HPM_P2
2022/10/17 00:00:11;;;;;;;;;;;;;;;;;;1047521;28;2479;-54
2022/10/17 00:01:00;;;;;;;;;;;;;;;;;;1047651;28;2489;-54
2022/10/17 00:01:37;;;;;;;;;;;;;;;;;;1047480;28;2579;-53
2022/10/17 00:02:07;;;;;;;;;;;;;;;;;;1050157;28;2500;-54
2022/10/17 00:02:38;;;;;;;;;;;;;;;;;;1052353;28;1685;-51
2022/10/17 00:03:08;;;;;;;;;;;;;;;;;;1049876;28;2517;-52
2022/10/17 00:03:39;;;;;;;;;;;;;;;;;;1049944;28;2123;-56
2022/10/17 00:04:09;;;;;;;;;;;;;;;;;;1051479;28;1726;-56
2022/10/17 00:04:40;;;;;;;;;;;;;;;;;;1051419;28;2143;-52
2022/10/17 00:05:11;;;;;;;;;;;;;;;;;;1047214;28;2571;-53
2022/10/17 00:05:43;;;;;;;;;;;;;;;;;;1045400;28;2698;-55
2022/10/17 00:06:14;;;;;;;;;;;;;;;;;;1040694;28;2592;-55
2022/10/17 00:06:44;;;;;;;;;;;;;;;;;;1042115;28;2882;-56
2022/10/17 00:07:15;;;;;;;;;;;;;;;;;;1042379;28;2618;-53
2022/10/17 00:07:45;;;;;;;;;;;;;;;;;;1051544;28;1645;-54
2022/10/17 00:08:16;;;;;;;;;;;;;;;;;;1051455;28;1727;-55
2022/10/17 00:08:46;;;;;;;;;;;;;;;;;;1049700;28;2444;-53
2022/10/17 00:09:17;;;;;;;;;;;;;;;;;;1049784;28;2622;-56
2022/10/17 00:09:47;;;;;;;;;;;;;;;;;;1048106;28;2008;-54
2022/10/17 00:10:17;;;;;;;;;;;;;;;;;;1047301;28;1656;-52
2022/10/17 00:11:03;;;;;;;;;;;;;;;;;;1048937;28;1649;-55
2022/10/17 00:11:33;;;;;;;;;;;;;;;;;;1048010;28;2628;-52
2022/10/17 00:12:03;;;;;;;;;;;;;;;;;;1048788;28;1624;-55
2022/10/17 00:12:34;;;;;;;;;;;;;;;;;;1048252;28;2590;-54
2022/10/17 00:13:04;;;;;;;;;;;;;;;;;;1047570;28;1691;-54
2022/10/17 00:13:43;;;;;;;;;;;;;;;;;;1047012;28;1997;-55
2022/10/17 00:14:13;;;;;;;;;;;;;;;;;;1046998;28;2586;-53
2022/10/17 00:14:43;;;;;;;;;;;;;;;;;;1050952;28;2663;-52
2022/10/17 00:15:15;;;;;;;;;;;;;;;;;;1049820;28;2640;-56
2022/10/17 00:15:45;;;;;;;;;;;;;;;;;;1049592;28;2891;-55
2022/10/17 00:16:23;;;;;;;;;;;;;;;;;;1049105;28;2371;-52
2022/10/17 00:16:53;;;;;;;;;;;;;;;;;;1049281;28;2158;-52
2022/10/17 00:17:23;;;;;;;;;;;;;;;;;;1047943;28;2591;-55
2022/10/17 00:17:53;;;;;;;;;;;;;;;;;;1049692;28;2272;-55
2022/10/17 00:18:24;;;;;;;;;;;;;;;;;;1049106;28;2688;-52
2022/10/17 00:18:54;;;;;;;;;;;;;;;;;;1049548;28;2533;-55
2022/10/17 00:19:24;;;;;;;;;;;;;;;;;;1047749;28;1786;-55
2022/10/17 00:19:54;;;;;;;;;;;;;;;;;;1047547;28;2407;-57
2022/10/17 00:20:25;;;;;;;;;;;;;;;;;;1049586;28;2537;-55
2022/10/17 00:20:56;;;;;;;;;;;;;;;;;;1049289;28;2610;-53
2022/10/17 00:21:26;;;;;;;;;;;;;;;;;;1049950;28;2018;-54
2022/10/17 00:21:56;;;;;;;;;;;;;;;;;;1049103;28;2265;-54
2022/10/17 00:22:26;;;;;;;;;;;;;;;;;;1050167;28;2210;-52
2022/10/17 00:22:57;;;;;;;;;;;;;;;;;;1047477;28;1858;-56
2022/10/17 00:23:29;;;;;;;;;;;;;;;;;;1047378;28;2054;-57
2022/10/17 00:23:59;;;;;;;;;;;;;;;;;;1040219;28;2890;-54
2022/10/17 00:24:30;;;;;;;;;;;;;;;;;;1042093;28;2539;-52
2022/10/17 00:25:00;;;;;;;;;;;;;;;;;;1038969;28;2149;-50
2022/10/17 00:25:31;;;;;;;;;;;;;;;;;;1042105;28;2260;-52
2022/10/17 00:26:03;;;;;;;;;;;;;;;;;;1047374;28;1740;-53
2022/10/17 00:26:33;;;;;;;;;;;;;;;;;;1047441;28;3750;-55
2022/10/17 00:27:04;;;;;;;;;;;;;;;;;;1048205;28;2769;-53
2022/10/17 00:27:35;;;;;;;;;;;;;;;;;;1048864;28;2184;-53
2022/10/17 00:28:08;;;;;;;;;;;;;;;;;;1048452;28;2599;-51
2022/10/17 00:28:38;;;;;;;;;;;;;;;;;;1047675;28;1624;-51
2022/10/17 00:29:08;;;;;;;;;;;;;;;;;;1049366;28;2259;-51
2022/10/17 00:29:39;;;;;;;;;;;;;;;;;;1050845;28;2122;-56
2022/10/17 00:30:11;;;;;;;;;;;;;;;;;;1048447;28;2653;-54
2022/10/17 00:30:42;;;;;;;;;;;;;;;;;;1050973;28;2139;-56
2022/10/17 00:31:13;;;;;;;;;;;;;;;;;;1050881;28;2087;-55
2022/10/17 00:31:43;;;;;;;;;;;;;;;;;;1047722;28;3268;-52
2022/10/17 00:32:14;;;;;;;;;;;;;;;;;;1051236;28;1789;-55
2022/10/17 00:32:44;;;;;;;;;;;;;;;;;;1050269;28;2092;-52
2022/10/17 00:33:15;;;;;;;;;;;;;;;;;;1049214;28;2555;-56
2022/10/17 00:33:46;;;;;;;;;;;;;;;;;;1049390;28;1864;-51
2022/10/17 00:34:17;;;;;;;;;;;;;;;;;;1050346;28;1303;-54
2022/10/17 00:34:47;;;;;;;;;;;;;;;;;;1047217;28;2880;-57
2022/10/17 00:35:18;;;;;;;;;;;;;;;;;;1050511;28;1743;-52
2022/10/17 00:35:48;;;;;;;;;;;;;;;;;;1050553;28;2248;-56
2022/10/17 00:36:20;;;;;;;;;;;;;;;;;;1047964;28;2797;-55
2022/10/17 00:36:50;;;;;;;;;;;;;;;;;;1050025;28;2549;-55
2022/10/17 00:37:22;;;;;;;;;;;;;;;;;;1048871;28;1708;-54
2022/10/17 00:37:52;;;;;;;;;;;;;;;;;;1044607;28;2661;-53
2022/10/17 00:38:23;;;;;;;;;;;;;;;;;;1045967;28;2473;-50
2022/10/17 00:38:55;;;;;;;;;;;;;;;;;;1044732;28;3000;-50
2022/10/17 00:39:25;;;;;;;;;;;;;;;;;;1049090;28;2756;-54
2022/10/17 00:39:55;;;;;;;;;;;;;;;;;;1048705;28;2715;-53
2022/10/17 00:40:26;;;;;;;;;;;;;;;;;;1046646;28;3111;-49
2022/10/17 00:40:56;;;;;;;;;;;;;;;;;;1049002;28;2340;-54
2022/10/17 00:41:28;;;;;;;;;;;;;;;;;;1049299;28;2165;-51
2022/10/17 00:41:58;;;;;;;;;;;;;;;;;;1050231;28;2305;-53
2022/10/17 00:42:29;;;;;;;;;;;;;;;;;;1048312;28;2668;-53
2022/10/17 00:42:59;;;;;;;;;;;;;;;;;;1050540;28;2134;-53
2022/10/17 00:43:47;;;;;;;;;;;;;;;;;;1049567;28;2176;-53
2022/10/17 00:44:30;;;;;;;;;;;;;;;;;;1041057;28;2280;-57
2022/10/17 00:45:21;;;;;;;;;;;;;;;;;;1040403;28;2999;-51
2022/10/17 00:45:51;;;;;;;;;;;;;;;;;;1047049;28;2153;-51
2022/10/17 00:46:22;;;;;;;;;;;;;;;;;;1047873;28;2821;-55
2022/10/17 00:46:53;;;;;;;;;;;;;;;;;;1047797;28;2069;-53
2022/10/17 00:47:24;;;;;;;;;;;;;;;;;;1051419;28;1614;-55
2022/10/17 00:48:04;;;;;;;;;;;;;;;;;;1049511;28;2619;-53
2022/10/17 00:48:34;;;;;;;;;;;;;;;;;;1047780;28;2710;-52
2022/10/17 00:49:09;;;;;;;;;;;;;;;;;;1049429;28;2655;-51
2022/10/17 00:49:39;;;;;;;;;;;;;;;;;;1048772;28;2251;-57
2022/10/17 00:50:11;;;;;;;;;;;;;;;;;;1043863;28;2967;-53
2022/10/17 00:50:43;;;;;;;;;;;;;;;;;;1045908;28;2095;-53
2022/10/17 00:51:13;;;;;;;;;;;;;;;;;;1050862;28;2382;-55
2022/10/17 00:51:49;;;;;;;;;;;;;;;;;;1047995;28;2225;-52
2022/10/17 00:52:22;;;;;;;;;;;;;;;;;;1049537;28;2510;-54
2022/10/17 00:52:53;;;;;;;;;;;;;;;;;;1048587;28;2538;-55
2022/10/17 00:53:23;;;;;;;;;;;;;;;;;;1048603;28;2629;-51
2022/10/17 00:53:55;;;;;;;;;;;;;;;;;;1047166;28;1995;-52
2022/10/17 00:54:39;;;;;;;;;;;;;;;;;;1049899;28;2685;-56
2022/10/17 00:55:22;;;;;;;;;;;;;;;;;;1048823;28;1929;-54
2022/10/17 00:55:52;;;;;;;;;;;;;;;;;;1048557;28;1786;-56
2022/10/17 00:56:23;;;;;;;;;;;;;;;;;;1049884;28;2070;-52
2022/10/17 00:56:56;;;;;;;;;;;;;;;;;;1051430;28;2304;-54
2022/10/17 00:57:27;;;;;;;;;;;;;;;;;;1049490;28;2169;-54
2022/10/17 00:57:59;;;;;;;;;;;;;;;;;;1051974;28;2009;-54
2022/10/17 00:58:30;;;;;;;;;;;;;;;;;;1050363;28;2803;-54
2022/10/17 00:59:01;;;;;;;;;;;;;;;;;;1051716;28;2119;-54
2022/10/17 00:59:33;;;;;;;;;;;;;;;;;;1046025;28;2079;-53
2022/10/17 01:00:06;;;;;;;;;;;;;;;;;;1042643;28;1622;-56
2022/10/17 01:00:37;;;;;;;;;;;;;;;;;;1041445;28;2087;-53
2022/10/17 01:01:08;;;;;;;;;;;;;;;;;;1043476;28;1796;-54
2022/10/17 01:01:39;;;;;;;;;;;;;;;;;;1046659;28;2242;-55
2022/10/17 01:02:15;;;;;;;;;;;;;;;;;;1047914;28;2623;-50
2022/10/17 01:02:45;;;;;;;;;;;;;;;;;;1048407;28;2125;-54
2022/10/17 01:03:16;;;;;;;;;;;;;;;;;;1049997;28;2736;-52
2022/10/17 01:03:46;;;;;;;;;;;;;;;;;;1046839;28;2013;-56
2022/10/17 01:04:17;;;;;;;;;;;;;;;;;;1043448;28;2006;-53
2022/10/17 01:04:49;;;;;;;;;;;;;;;;;;1043858;28;2100;-53
2022/10/17 01:05:20;;;;;;;;;;;;;;;;;;1046943;28;2557;-56
2022/10/17 01:05:51;;;;;;;;;;;;;;;;;;1047934;28;2737;-56
2022/10/17 01:06:22;;;;;;;;;;;;;;;;;;1047299;28;2611;-52
2022/10/17 01:06:52;;;;;;;;;;;;;;;;;;1045624;28;2331;-52
2022/10/17 01:07:23;;;;;;;;;;;;;;;;;;1044295;28;2914;-53
2022/10/17 01:07:53;;;;;;;;;;;;;;;;;;1043734;28;2043;-51
2022/10/17 01:08:24;;;;;;;;;;;;;;;;;;1044711;28;2613;-55
2022/10/17 01:08:55;;;;;;;;;;;;;;;;;;1050472;28;2276;-56
2022/10/17 01:09:26;;;;;;;;;;;;;;;;;;1047293;28;1794;-53
2022/10/17 01:09:57;;;;;;;;;;;;;;;;;;1042499;28;2081;-53
2022/10/17 01:10:42;;;;;;;;;;;;;;;;;;1042619;28;2536;-55
2022/10/17 01:11:20;;;;;;;;;;;;;;;;;;1041954;28;2904;-52
2022/10/17 01:12:09;;;;;;;;;;;;;;;;;;1048614;28;2037;-55
2022/10/17 01:12:50;;;;;;;;;;;;;;;;;;1050188;28;2446;-55
2022/10/17 01:13:23;;;;;;;;;;;;;;;;;;1047718;28;2234;-55
2022/10/17 01:13:58;;;;;;;;;;;;;;;;;;1051053;28;2160;-55
2022/10/17 01:14:44;;;;;;;;;;;;;;;;;;1050452;28;2410;-56
2022/10/17 01:15:22;;;;;;;;;;;;;;;;;;1049300;28;2027;-53
2022/10/17 01:16:06;;;;;;;;;;;;;;;;;;1049989;28;1409;-59
2022/10/17 01:16:53;;;;;;;;;;;;;;;;;;1050429;28;2622;-50
2022/10/17 01:17:38;;;;;;;;;;;;;;;;;;1050701;28;2120;-51
2022/10/17 01:18:21;;;;;;;;;;;;;;;;;;1049966;28;1592;-54
2022/10/17 01:19:03;;;;;;;;;;;;;;;;;;1047535;28;1961;-52
2022/10/17 01:19:42;;;;;;;;;;;;;;;;;;1044886;28;2467;-54
2022/10/17 01:20:25;;;;;;;;;;;;;;;;;;1042454;28;1975;-55
2022/10/17 01:21:15;;;;;;;;;;;;;;;;;;1044101;28;2014;-54
2022/10/17 01:21:55;;;;;;;;;;;;;;;;;;1038978;28;2259;-57
2022/10/17 01:22:37;;;;;;;;;;;;;;;;;;1049104;28;2690;-52
2022/10/17 01:23:17;;;;;;;;;;;;;;;;;;1047525;28;1646;-51
2022/10/17 01:23:53;;;;;;;;;;;;;;;;;;1048630;28;1988;-53
2022/10/17 01:24:24;;;;;;;;;;;;;;;;;;1049036;28;2217;-54
2022/10/17 01:25:06;;;;;;;;;;;;;;;;;;1050206;28;2157;-53
2022/10/17 01:25:44;;;;;;;;;;;;;;;;;;1047275;28;1935;-57
2022/10/17 01:26:38;;;;;;;;;;;;;;;;;;1041359;28;2079;-55
2022/10/17 01:27:20;;;;;;;;;;;;;;;;;;1027677;28;2267;-51
2022/10/17 01:27:57;;;;;;;;;;;;;;;;;;1031654;28;2136;-51
2022/10/17 01:28:38;;;;;;;;;;;;;;;;;;1047542;28;2614;-53
2022/10/17 01:29:32;;;;;;;;;;;;;;;;;;1047752;28;2120;-53
2022/10/17 01:30:14;;;;;;;;;;;;;;;;;;1050954;28;1782;-54
2022/10/17 01:30:53;;;;;;;;;;;;;;;;;;1047138;28;1753;-53
2022/10/17 01:31:33;;;;;;;;;;;;;;;;;;1048289;28;2035;-52
2022/10/17 01:32:11;;;;;;;;;;;;;;;;;;1050595;28;2136;-57
2022/10/17 01:32:47;;;;;;;;;;;;;;;;;;1047537;28;2125;-54
2022/10/17 01:33:20;;;;;;;;;;;;;;;;;;1048571;28;1697;-55
2022/10/17 01:33:50;;;;;;;;;;;;;;;;;;1049149;28;1968;-52
2022/10/17 01:34:44;;;;;;;;;;;;;;;;;;1048118;28;2254;-53
2022/10/17 01:35:21;;;;;;;;;;;;;;;;;;1048045;28;2181;-54
2022/10/17 01:36:12;;;;;;;;;;;;;;;;;;1050007;28;2108;-57
2022/10/17 01:36:55;;;;;;;;;;;;;;;;;;1044338;28;2646;-54
2022/10/17 01:37:46;;;;;;;;;;;;;;;;;;1045647;28;2042;-55
2022/10/17 01:38:23;;;;;;;;;;;;;;;;;;1047862;28;2304;-56
2022/10/17 01:39:03;;;;;;;;;;;;;;;;;;1047611;28;2249;-55
2022/10/17 01:39:48;;;;;;;;;;;;;;;;;;1048521;28;2296;-54
2022/10/17 01:40:28;;;;;;;;;;;;;;;;;;1048013;28;2149;-56
2022/10/17 01:41:01;;;;;;;;;;;;;;;;;;1050607;28;2211;-54
2022/10/17 01:41:39;;;;;;;;;;;;;;;;;;1047523;28;2510;-54
2022/10/17 01:42:12;;;;;;;;;;;;;;;;;;1046101;28;2170;-53
2022/10/17 01:42:47;;;;;;;;;;;;;;;;;;1049119;28;3006;-56
2022/10/17 01:43:28;;;;;;;;;;;;;;;;;;1049771;28;2607;-55
2022/10/17 01:44:02;;;;;;;;;;;;;;;;;;1048261;28;1964;-53
2022/10/17 01:44:44;;;;;;;;;;;;;;;;;;1049820;28;2251;-53
2022/10/17 01:45:27;;;;;;;;;;;;;;;;;;1048097;28;2619;-55
2022/10/17 01:46:05;;;;;;;;;;;;;;;;;;1047568;28;1709;-53
2022/10/17 01:46:37;;;;;;;;;;;;;;;;;;1047594;28;2628;-53
2022/10/17 01:47:09;;;;;;;;;;;;;;;;;;1048863;28;1277;-55
2022/10/17 01:47:40;;;;;;;;;;;;;;;;;;1050004;28;1779;-54
2022/10/17 01:48:19;;;;;;;;;;;;;;;;;;1051472;28;2112;-54
2022/10/17 01:48:59;;;;;;;;;;;;;;;;;;1045916;28;3759;-54
2022/10/17 01:49:30;;;;;;;;;;;;;;;;;;1048599;28;1941;-53
2022/10/17 01:50:03;;;;;;;;;;;;;;;;;;1051482;28;1866;-54
2022/10/17 01:50:36;;;;;;;;;;;;;;;;;;1049435;28;2559;-55
2022/10/17 01:51:12;;;;;;;;;;;;;;;;;;1048498;28;2723;-56
2022/10/17 01:51:48;;;;;;;;;;;;;;;;;;1048356;28;3088;-52
2022/10/17 01:52:21;;;;;;;;;;;;;;;;;;1048804;28;2984;-51
2022/10/17 01:52:54;;;;;;;;;;;;;;;;;;1047693;28;3079;-53
2022/10/17 01:53:28;;;;;;;;;;;;;;;;;;1049919;28;2646;-52
2022/10/17 01:54:01;;;;;;;;;;;;;;;;;;1048853;28;2155;-52
2022/10/17 01:54:48;;;;;;;;;;;;;;;;;;1051847;28;1481;-54
2022/10/17 01:55:28;;;;;;;;;;;;;;;;;;1046677;28;1770;-54
2022/10/17 01:56:00;;;;;;;;;;;;;;;;;;1042732;28;2508;-53
2022/10/17 01:56:32;;;;;;;;;;;;;;;;;;1038755;28;1694;-52
2022/10/17 01:57:04;;;;;;;;;;;;;;;;;;1040588;28;2682;-54
2022/10/17 01:57:38;;;;;;;;;;;;;;;;;;1046237;28;1980;-50
2022/10/17 01:58:11;;;;;;;;;;;;;;;;;;1045090;28;2063;-54
2022/10/17 01:58:46;;;;;;;;;;;;;;;;;;1051235;28;2582;-53
2022/10/17 01:59:18;;;;;;;;;;;;;;;;;;1050533;28;2248;-54
2022/10/17 01:59:50;;;;;;;;;;;;;;;;;;1054560;28;2307;-53
2022/10/17 02:00:22;;;;;;;;;;;;;;;;;;1053023;28;2178;-54
2022/10/17 02:00:53;;;;;;;;;;;;;;;;;;1051645;28;1650;-51
2022/10/17 02:01:25;;;;;;;;;;;;;;;;;;1053851;28;2126;-56
2022/10/17 02:01:56;;;;;;;;;;;;;;;;;;1054540;28;2023;-55
2022/10/17 02:02:27;;;;;;;;;;;;;;;;;;1053570;28;2469;-57
2022/10/17 02:03:00;;;;;;;;;;;;;;;;;;1050427;28;2010;-54
2022/10/17 02:03:31;;;;;;;;;;;;;;;;;;1050801;28;1907;-53
2022/10/17 02:04:02;;;;;;;;;;;;;;;;;;1049328;28;2585;-57
2022/10/17 02:04:34;;;;;;;;;;;;;;;;;;1053102;28;1894;-54
2022/10/17 02:05:05;;;;;;;;;;;;;;;;;;1052261;28;2175;-54
2022/10/17 02:05:37;;;;;;;;;;;;;;;;;;1053310;28;2014;-56
2022/10/17 02:06:09;;;;;;;;;;;;;;;;;;1047158;28;2542;-54
2022/10/17 02:06:39;;;;;;;;;;;;;;;;;;1045434;28;2548;-57
2022/10/17 02:07:11;;;;;;;;;;;;;;;;;;1046651;28;1680;-56
2022/10/17 02:07:41;;;;;;;;;;;;;;;;;;1046743;28;2101;-54
2022/10/17 02:08:12;;;;;;;;;;;;;;;;;;1048831;28;2530;-55
2022/10/17 02:08:45;;;;;;;;;;;;;;;;;;1053343;28;2639;-53
2022/10/17 02:09:22;;;;;;;;;;;;;;;;;;1052907;28;1661;-51
2022/10/17 02:09:53;;;;;;;;;;;;;;;;;;1050149;28;2731;-56
2022/10/17 02:10:29;;;;;;;;;;;;;;;;;;1048447;28;2648;-51
2022/10/17 02:11:02;;;;;;;;;;;;;;;;;;1046889;28;1863;-56
2022/10/17 02:11:32;;;;;;;;;;;;;;;;;;1051413;28;1934;-53
2022/10/17 02:12:21;;;;;;;;;;;;;;;;;;1050096;28;2490;-54
2022/10/17 02:13:18;;;;;;;;;;;;;;;;;;1053330;28;2477;-50
2022/10/17 02:13:58;;;;;;;;;;;;;;;;;;1051560;28;1805;-53
2022/10/17 02:14:43;;;;;;;;;;;;;;;;;;1053254;28;2544;-53
2022/10/17 02:15:31;;;;;;;;;;;;;;;;;;1052165;28;2540;-55
2022/10/17 02:16:23;;;;;;;;;;;;;;;;;;1052492;28;1773;-54
2022/10/17 02:17:01;;;;;;;;;;;;;;;;;;1051936;28;2197;-55
2022/10/17 02:17:41;;;;;;;;;;;;;;;;;;1050602;28;2166;-55
2022/10/17 02:18:13;;;;;;;;;;;;;;;;;;1053626;28;2456;-56
2022/10/17 02:18:50;;;;;;;;;;;;;;;;;;1052608;28;3052;-52
2022/10/17 02:19:29;;;;;;;;;;;;;;;;;;1050476;28;2105;-56
2022/10/17 02:20:11;;;;;;;;;;;;;;;;;;1047982;28;2367;-56
2022/10/17 02:20:47;;;;;;;;;;;;;;;;;;1049272;28;1989;-57
2022/10/17 02:21:22;;;;;;;;;;;;;;;;;;1046932;28;1609;-57
2022/10/17 02:22:06;;;;;;;;;;;;;;;;;;1043130;28;2592;-51
2022/10/17 02:22:38;;;;;;;;;;;;;;;;;;1044623;28;1991;-52
2022/10/17 02:23:09;;;;;;;;;;;;;;;;;;1045577;28;2699;-53
2022/10/17 02:23:39;;;;;;;;;;;;;;;;;;1049207;28;2583;-53
2022/10/17 02:24:19;;;;;;;;;;;;;;;;;;1044069;28;2650;-55
2022/10/17 02:25:01;;;;;;;;;;;;;;;;;;1046786;28;2230;-52
2022/10/17 02:25:41;;;;;;;;;;;;;;;;;;1047169;28;1673;-54
2022/10/17 02:26:32;;;;;;;;;;;;;;;;;;1051984;28;2123;-55
2022/10/17 02:27:12;;;;;;;;;;;;;;;;;;1054964;28;1930;-51
2022/10/17 02:27:48;;;;;;;;;;;;;;;;;;1052858;28;1650;-52
2022/10/17 02:28:51;;;;;;;;;;;;;;;;;;1046448;28;1473;-56
2022/10/17 02:29:26;;;;;;;;;;;;;;;;;;1038160;28;2276;-53
2022/10/17 02:30:04;;;;;;;;;;;;;;;;;;1039352;28;3090;-54
2022/10/17 02:30:43;;;;;;;;;;;;;;;;;;1049423;28;1640;-57
2022/10/17 02:31:21;;;;;;;;;;;;;;;;;;1048540;28;2533;-52
2022/10/17 02:31:54;;;;;;;;;;;;;;;;;;1047893;28;2343;-55
2022/10/17 02:32:48;;;;;;;;;;;;;;;;;;1047237;28;2151;-51
2022/10/17 02:33:28;;;;;;;;;;;;;;;;;;1047100;28;1971;-56
2022/10/17 02:34:01;;;;;;;;;;;;;;;;;;1050500;28;1541;-52
2022/10/17 02:34:37;;;;;;;;;;;;;;;;;;1049500;28;2191;-55
2022/10/17 02:35:09;;;;;;;;;;;;;;;;;;1047620;28;2542;-53
2022/10/17 02:35:42;;;;;;;;;;;;;;;;;;1047747;28;2025;-52
2022/10/17 02:36:21;;;;;;;;;;;;;;;;;;1046620;28;1459;-51
2022/10/17 02:36:54;;;;;;;;;;;;;;;;;;1045316;28;2103;-55
2022/10/17 02:37:27;;;;;;;;;;;;;;;;;;1044632;28;1793;-56
2022/10/17 02:37:58;;;;;;;;;;;;;;;;;;1044858;28;1686;-54
2022/10/17 02:38:29;;;;;;;;;;;;;;;;;;1047786;28;1816;-53
2022/10/17 02:39:00;;;;;;;;;;;;;;;;;;1046993;28;2570;-57
2022/10/17 02:39:31;;;;;;;;;;;;;;;;;;1050980;28;2430;-53
2022/10/17 02:40:03;;;;;;;;;;;;;;;;;;1048613;28;2490;-54
2022/10/17 02:40:35;;;;;;;;;;;;;;;;;;1048430;28;1590;-51
2022/10/17 02:41:07;;;;;;;;;;;;;;;;;;1047854;28;2597;-53
2022/10/17 02:41:39;;;;;;;;;;;;;;;;;;1053800;28;2929;-57
2022/10/17 02:42:10;;;;;;;;;;;;;;;;;;1053609;28;2610;-54
2022/10/17 02:42:42;;;;;;;;;;;;;;;;;;1055097;28;2816;-51
2022/10/17 02:43:13;;;;;;;;;;;;;;;;;;1051732;28;1694;-55
2022/10/17 02:43:46;;;;;;;;;;;;;;;;;;1054375;28;2579;-52
2022/10/17 02:44:16;;;;;;;;;;;;;;;;;;1054426;28;2074;-52
2022/10/17 02:44:46;;;;;;;;;;;;;;;;;;1056305;28;1716;-54
2022/10/17 02:45:18;;;;;;;;;;;;;;;;;;1054614;28;2659;-53
2022/10/17 02:45:49;;;;;;;;;;;;;;;;;;1048408;28;1669;-52
2022/10/17 02:46:22;;;;;;;;;;;;;;;;;;1047742;28;1586;-53
2022/10/17 02:47:20;;;;;;;;;;;;;;;;;;1045282;28;2530;-54
2022/10/17 02:47:53;;;;;;;;;;;;;;;;;;1048531;28;2573;-52
2022/10/17 02:48:24;;;;;;;;;;;;;;;;;;1052130;28;1893;-53
2022/10/17 02:48:57;;;;;;;;;;;;;;;;;;1052147;28;2022;-54
2022/10/17 02:49:30;;;;;;;;;;;;;;;;;;1051072;28;2464;-52
2022/10/17 02:50:00;;;;;;;;;;;;;;;;;;1054227;28;2535;-53
2022/10/17 02:50:35;;;;;;;;;;;;;;;;;;1054197;28;2521;-53
2022/10/17 02:51:09;;;;;;;;;;;;;;;;;;1053013;28;2151;-54
2022/10/17 02:51:48;;;;;;;;;;;;;;;;;;1047355;28;1990;-57
2022/10/17 02:52:25;;;;;;;;;;;;;;;;;;1040467;28;2410;-54
2022/10/17 02:52:58;;;;;;;;;;;;;;;;;;1041910;28;2313;-56
2022/10/17 02:53:42;;;;;;;;;;;;;;;;;;1041920;28;2045;-55
2022/10/17 02:54:28;;;;;;;;;;;;;;;;;;1050183;28;3015;-53
2022/10/17 02:55:17;;;;;;;;;;;;;;;;;;1051068;28;2982;-55
2022/10/17 02:55:58;;;;;;;;;;;;;;;;;;1047693;28;2424;-54
2022/10/17 02:56:30;;;;;;;;;;;;;;;;;;1045006;28;2536;-55
2022/10/17 02:57:03;;;;;;;;;;;;;;;;;;1043472;28;2312;-56
2022/10/17 02:57:36;;;;;;;;;;;;;;;;;;1044916;28;1684;-54
2022/10/17 02:58:13;;;;;;;;;;;;;;;;;;1047033;28;2155;-53
2022/10/17 02:58:46;;;;;;;;;;;;;;;;;;1038104;28;2015;-52
2022/10/17 02:59:19;;;;;;;;;;;;;;;;;;1038382;28;2106;-53
2022/10/17 02:59:51;;;;;;;;;;;;;;;;;;1033801;28;2024;-54
2022/10/17 03:00:22;;;;;;;;;;;;;;;;;;1034558;28;2516;-52
2022/10/17 03:00:53;;;;;;;;;;;;;;;;;;1039604;28;2562;-53
2022/10/17 03:01:24;;;;;;;;;;;;;;;;;;1036787;28;2625;-55
2022/10/17 03:01:54;;;;;;;;;;;;;;;;;;1046557;28;2182;-55
2022/10/17 03:02:25;;;;;;;;;;;;;;;;;;1045050;28;2097;-54
2022/10/17 03:02:55;;;;;;;;;;;;;;;;;;1048267;28;1649;-53
2022/10/17 03:03:27;;;;;;;;;;;;;;;;;;1052065;28;2026;-52
2022/10/17 03:04:10;;;;;;;;;;;;;;;;;;1048406;28;1684;-55
2022/10/17 03:04:44;;;;;;;;;;;;;;;;;;1048979;28;2171;-55
2022/10/17 03:05:24;;;;;;;;;;;;;;;;;;1048418;28;2229;-54
2022/10/17 03:05:55;;;;;;;;;;;;;;;;;;1052173;28;2129;-55
2022/10/17 03:06:25;;;;;;;;;;;;;;;;;;1053935;28;2603;-53
2022/10/17 03:06:55;;;;;;;;;;;;;;;;;;1052390;28;2509;-54
2022/10/17 03:07:26;;;;;;;;;;;;;;;;;;1050155;28;2507;-54
2022/10/17 03:07:56;;;;;;;;;;;;;;;;;;1050833;28;2105;-55
2022/10/17 03:08:26;;;;;;;;;;;;;;;;;;1049641;28;2656;-53
2022/10/17 03:08:56;;;;;;;;;;;;;;;;;;1048315;28;2627;-53
2022/10/17 03:09:27;;;;;;;;;;;;;;;;;;1052731;28;1673;-55
2022/10/17 03:09:58;;;;;;;;;;;;;;;;;;1053188;28;2263;-55
2022/10/17 03:10:29;;;;;;;;;;;;;;;;;;1050583;28;2416;-51
2022/10/17 03:10:59;;;;;;;;;;;;;;;;;;1048636;28;2203;-52
2022/10/17 03:11:30;;;;;;;;;;;;;;;;;;1048052;28;2374;-54
2022/10/17 03:12:00;;;;;;;;;;;;;;;;;;1043298;28;2118;-53
2022/10/17 03:12:31;;;;;;;;;;;;;;;;;;1051023;28;2557;-53
2022/10/17 03:13:02;;;;;;;;;;;;;;;;;;1045067;28;2293;-53
2022/10/17 03:13:33;;;;;;;;;;;;;;;;;;1045194;28;3616;-51
2022/10/17 03:14:03;;;;;;;;;;;;;;;;;;1043982;28;2648;-53
2022/10/17 03:14:33;;;;;;;;;;;;;;;;;;1045672;28;2457;-57
2022/10/17 03:15:04;;;;;;;;;;;;;;;;;;1052041;28;1868;-55
2022/10/17 03:15:35;;;;;;;;;;;;;;;;;;1055809;28;1609;-54
2022/10/17 03:16:06;;;;;;;;;;;;;;;;;;1051074;28;2169;-55
2022/10/17 03:16:37;;;;;;;;;;;;;;;;;;1046389;28;1788;-53
2022/10/17 03:17:07;;;;;;;;;;;;;;;;;;1046897;28;2129;-54
2022/10/17 03:17:38;;;;;;;;;;;;;;;;;;1047088;28;2033;-56
2022/10/17 03:18:08;;;;;;;;;;;;;;;;;;1048535;28;2456;-58
2022/10/17 03:18:39;;;;;;;;;;;;;;;;;;1055241;28;2182;-52
2022/10/17 03:19:16;;;;;;;;;;;;;;;;;;1056630;28;1801;-54
2022/10/17 03:19:46;;;;;;;;;;;;;;;;;;1054166;28;2932;-53
2022/10/17 03:20:17;;;;;;;;;;;;;;;;;;1053770;28;1637;-55
2022/10/17 03:20:48;;;;;;;;;;;;;;;;;;1053337;28;2092;-56
2022/10/17 03:21:18;;;;;;;;;;;;;;;;;;1045156;28;2155;-52
2022/10/17 03:21:49;;;;;;;;;;;;;;;;;;1042957;28;2471;-55
2022/10/17 03:22:19;;;;;;;;;;;;;;;;;;1045213;28;1787;-53
2022/10/17 03:22:52;;;;;;;;;;;;;;;;;;1045004;28;2232;-54
2022/10/17 03:23:22;;;;;;;;;;;;;;;;;;1053974;28;1743;-55
2022/10/17 03:23:53;;;;;;;;;;;;;;;;;;1054789;28;2088;-52
2022/10/17 03:24:23;;;;;;;;;;;;;;;;;;1050578;28;2508;-52
2022/10/17 03:24:54;;;;;;;;;;;;;;;;;;1050102;28;1777;-53
2022/10/17 03:25:24;;;;;;;;;;;;;;;;;;1048535;28;1253;-54
2022/10/17 03:25:55;;;;;;;;;;;;;;;;;;1048770;28;2294;-54
2022/10/17 03:26:25;;;;;;;;;;;;;;;;;;1047164;28;2068;-55
2022/10/17 03:26:56;;;;;;;;;;;;;;;;;;1049329;28;2622;-53
2022/10/17 03:27:26;;;;;;;;;;;;;;;;;;1047869;28;2430;-53
2022/10/17 03:27:58;;;;;;;;;;;;;;;;;;1048607;28;2162;-57
2022/10/17 03:28:28;;;;;;;;;;;;;;;;;;1052324;28;1695;-55
2022/10/17 03:28:58;;;;;;;;;;;;;;;;;;1051982;28;2173;-53
2022/10/17 03:29:29;;;;;;;;;;;;;;;;;;1053929;28;1721;-50
2022/10/17 03:30:00;;;;;;;;;;;;;;;;;;1049047;28;2481;-53
2022/10/17 03:30:31;;;;;;;;;;;;;;;;;;1051754;28;1584;-55
2022/10/17 03:31:08;;;;;;;;;;;;;;;;;;1050454;28;1946;-51
2022/10/17 03:31:38;;;;;;;;;;;;;;;;;;1050747;28;2355;-53
2022/10/17 03:32:09;;;;;;;;;;;;;;;;;;1054643;28;2388;-53
2022/10/17 03:32:39;;;;;;;;;;;;;;;;;;1053233;28;1986;-56
2022/10/17 03:33:09;;;;;;;;;;;;;;;;;;1052324;28;1698;-55
2022/10/17 03:33:39;;;;;;;;;;;;;;;;;;1052376;28;2303;-51
2022/10/17 03:34:11;;;;;;;;;;;;;;;;;;1055567;28;1986;-53
2022/10/17 03:34:42;;;;;;;;;;;;;;;;;;1056287;28;1795;-51
2022/10/17 03:35:12;;;;;;;;;;;;;;;;;;1047845;28;2163;-54
2022/10/17 03:35:42;;;;;;;;;;;;;;;;;;1051044;28;2645;-56
2022/10/17 03:36:14;;;;;;;;;;;;;;;;;;1048823;28;2677;-54
2022/10/17 03:36:47;;;;;;;;;;;;;;;;;;1051878;28;1850;-54
2022/10/17 03:37:18;;;;;;;;;;;;;;;;;;1050980;28;2737;-54
2022/10/17 03:37:48;;;;;;;;;;;;;;;;;;1049620;28;1651;-52
2022/10/17 03:38:19;;;;;;;;;;;;;;;;;;1048270;28;2755;-53
2022/10/17 03:38:52;;;;;;;;;;;;;;;;;;1050778;28;2187;-53
2022/10/17 03:39:22;;;;;;;;;;;;;;;;;;1051482;28;2061;-51
2022/10/17 03:39:53;;;;;;;;;;;;;;;;;;1054711;28;2599;-53
2022/10/17 03:40:23;;;;;;;;;;;;;;;;;;1053903;28;2836;-54
2022/10/17 03:40:54;;;;;;;;;;;;;;;;;;1055009;28;2055;-57
2022/10/17 03:41:25;;;;;;;;;;;;;;;;;;1052985;28;2084;-55
2022/10/17 03:41:55;;;;;;;;;;;;;;;;;;1053017;28;2177;-53
2022/10/17 03:42:26;;;;;;;;;;;;;;;;;;1053645;28;2689;-54
2022/10/17 03:42:57;;;;;;;;;;;;;;;;;;1044533;28;2879;-51
2022/10/17 03:43:27;;;;;;;;;;;;;;;;;;1044868;28;2632;-52
2022/10/17 03:43:58;;;;;;;;;;;;;;;;;;1044074;28;2357;-55
2022/10/17 03:44:28;;;;;;;;;;;;;;;;;;1044795;28;2123;-54
2022/10/17 03:44:59;;;;;;;;;;;;;;;;;;1055835;28;2649;-55
2022/10/17 03:45:29;;;;;;;;;;;;;;;;;;1048849;28;2621;-53
2022/10/17 03:46:00;;;;;;;;;;;;;;;;;;1048854;28;2792;-53
2022/10/17 03:46:30;;;;;;;;;;;;;;;;;;1047849;28;1704;-53
2022/10/17 03:47:00;;;;;;;;;;;;;;;;;;1049309;28;2781;-54
2022/10/17 03:47:31;;;;;;;;;;;;;;;;;;1051927;28;1685;-55
2022/10/17 03:48:01;;;;;;;;;;;;;;;;;;1054269;28;2748;-53
2022/10/17 03:48:31;;;;;;;;;;;;;;;;;;1054328;28;2581;-55
2022/10/17 03:49:02;;;;;;;;;;;;;;;;;;1053654;28;2349;-57
2022/10/17 03:49:32;;;;;;;;;;;;;;;;;;1053928;28;1607;-52
2022/10/17 03:50:03;;;;;;;;;;;;;;;;;;1051916;28;2690;-55
2022/10/17 03:50:34;;;;;;;;;;;;;;;;;;1044554;28;2093;-53
2022/10/17 03:51:05;;;;;;;;;;;;;;;;;;1043986;28;2065;-56
2022/10/17 03:51:36;;;;;;;;;;;;;;;;;;1044794;28;2566;-51
2022/10/17 03:52:13;;;;;;;;;;;;;;;;;;1045885;28;2547;-50
2022/10/17 03:52:47;;;;;;;;;;;;;;;;;;1053244;28;2849;-55
2022/10/17 03:53:17;;;;;;;;;;;;;;;;;;1052987;28;2807;-52
2022/10/17 03:53:48;;;;;;;;;;;;;;;;;;1053380;28;2165;-56
2022/10/17 03:54:18;;;;;;;;;;;;;;;;;;1050711;28;2634;-51
2022/10/17 03:55:02;;;;;;;;;;;;;;;;;;1044882;28;2344;-51
2022/10/17 03:55:40;;;;;;;;;;;;;;;;;;1045530;28;2660;-56
2022/10/17 03:56:15;;;;;;;;;;;;;;;;;;1043583;28;2577;-54